sensor_id;sensor_type;location;lat;lon;timestamp;P1;durP1;ratioP1;P2;durP2;ratioP2
52106;SDS011;38105;52.968;5.974;2022-12-18T00:00:53;148.98;;;56.47;;
52106;SDS011;38105;52.968;5.974;2022-12-18T00:03:19;139.63;;;56.00;;
52106;SDS011;38105;52.968;5.974;2022-12-18T00:05:48;153.93;;;58.08;;
52106;SDS011;38105;52.968;5.974;2022-12-18T00:08:14;142.88;;;56.17;;
52106;SDS011;38105;52.968;5.974;2022-12-18T00:10:41;154.85;;;59.92;;
52106;SDS011;38105;52.968;5.974;2022-12-18T00:13:06;152.40;;;59.65;;
52106;SDS011;38105;52.968;5.974;2022-12-18T00:15:35;150.10;;;57.90;;
52106;SDS011;38105;52.968;5.974;2022-12-18T00:18:02;151.73;;;57.35;;
52106;SDS011;38105;52.968;5.974;2022-12-18T00:20:28;145.38;;;58.03;;
52106;SDS011;38105;52.968;5.974;2022-12-18T00:22:54;137.98;;;55.85;;
52106;SDS011;38105;52.968;5.974;2022-12-18T00:25:20;138.35;;;54.90;;
52106;SDS011;38105;52.968;5.974;2022-12-18T00:27:45;132.95;;;51.67;;
52106;SDS011;38105;52.968;5.974;2022-12-18T00:30:11;130.23;;;52.20;;
52106;SDS011;38105;52.968;5.974;2022-12-18T00:32:37;130.07;;;51.80;;
52106;SDS011;38105;52.968;5.974;2022-12-18T00:35:03;134.90;;;53.42;;
52106;SDS011;38105;52.968;5.974;2022-12-18T00:37:29;146.95;;;54.95;;
52106;SDS011;38105;52.968;5.974;2022-12-18T00:39:55;135.35;;;55.55;;
52106;SDS011;38105;52.968;5.974;2022-12-18T00:42:21;140.57;;;54.75;;
52106;SDS011;38105;52.968;5.974;2022-12-18T00:45:05;141.00;;;53.47;;
52106;SDS011;38105;52.968;5.974;2022-12-18T00:47:31;136.93;;;52.60;;
52106;SDS011;38105;52.968;5.974;2022-12-18T00:49:57;149.00;;;53.85;;
52106;SDS011;38105;52.968;5.974;2022-12-18T00:52:22;135.48;;;51.78;;
52106;SDS011;38105;52.968;5.974;2022-12-18T00:54:48;135.05;;;51.55;;
52106;SDS011;38105;52.968;5.974;2022-12-18T00:57:14;118.13;;;47.30;;
52106;SDS011;38105;52.968;5.974;2022-12-18T00:59:39;123.40;;;49.80;;
52106;SDS011;38105;52.968;5.974;2022-12-18T01:02:05;122.15;;;48.63;;
52106;SDS011;38105;52.968;5.974;2022-12-18T01:04:31;119.55;;;48.65;;
52106;SDS011;38105;52.968;5.974;2022-12-18T01:06:57;123.70;;;49.17;;
52106;SDS011;38105;52.968;5.974;2022-12-18T01:09:23;136.65;;;50.60;;
52106;SDS011;38105;52.968;5.974;2022-12-18T01:11:48;120.20;;;47.13;;
52106;SDS011;38105;52.968;5.974;2022-12-18T01:14:14;128.02;;;51.38;;
52106;SDS011;38105;52.968;5.974;2022-12-18T01:16:40;136.30;;;49.42;;
52106;SDS011;38105;52.968;5.974;2022-12-18T01:19:05;122.65;;;49.03;;
52106;SDS011;38105;52.968;5.974;2022-12-18T01:21:31;132.32;;;50.83;;
52106;SDS011;38105;52.968;5.974;2022-12-18T01:23:57;130.90;;;50.67;;
52106;SDS011;38105;52.968;5.974;2022-12-18T01:26:23;136.35;;;50.63;;
52106;SDS011;38105;52.968;5.974;2022-12-18T01:28:49;133.93;;;50.63;;
52106;SDS011;38105;52.968;5.974;2022-12-18T01:33:49;154.25;;;54.55;;
52106;SDS011;38105;52.968;5.974;2022-12-18T01:36:16;145.15;;;54.10;;
52106;SDS011;38105;52.968;5.974;2022-12-18T01:38:47;136.95;;;50.75;;
52106;SDS011;38105;52.968;5.974;2022-12-18T01:41:13;152.20;;;52.35;;
52106;SDS011;38105;52.968;5.974;2022-12-18T01:43:44;154.07;;;53.78;;
52106;SDS011;38105;52.968;5.974;2022-12-18T01:46:25;167.30;;;55.10;;
52106;SDS011;38105;52.968;5.974;2022-12-18T01:48:59;159.68;;;53.28;;
52106;SDS011;38105;52.968;5.974;2022-12-18T01:51:26;177.90;;;54.83;;
52106;SDS011;38105;52.968;5.974;2022-12-18T01:53:54;165.30;;;55.10;;
52106;SDS011;38105;52.968;5.974;2022-12-18T01:56:20;153.90;;;51.03;;
52106;SDS011;38105;52.968;5.974;2022-12-18T02:01:20;145.90;;;51.03;;
52106;SDS011;38105;52.968;5.974;2022-12-18T02:03:47;149.48;;;50.25;;
52106;SDS011;38105;52.968;5.974;2022-12-18T02:06:18;151.57;;;51.97;;
52106;SDS011;38105;52.968;5.974;2022-12-18T02:08:50;146.38;;;51.75;;
52106;SDS011;38105;52.968;5.974;2022-12-18T02:11:54;170.90;;;54.83;;
52106;SDS011;38105;52.968;5.974;2022-12-18T02:14:56;153.02;;;52.60;;
52106;SDS011;38105;52.968;5.974;2022-12-18T02:17:29;155.10;;;51.35;;
52106;SDS011;38105;52.968;5.974;2022-12-18T02:20:23;147.63;;;51.63;;
52106;SDS011;38105;52.968;5.974;2022-12-18T02:28:22;162.40;;;53.05;;
52106;SDS011;38105;52.968;5.974;2022-12-18T02:30:53;168.18;;;55.33;;
52106;SDS011;38105;52.968;5.974;2022-12-18T02:33:26;160.77;;;55.63;;
52106;SDS011;38105;52.968;5.974;2022-12-18T02:35:53;157.82;;;54.42;;
52106;SDS011;38105;52.968;5.974;2022-12-18T02:38:20;159.90;;;55.97;;
52106;SDS011;38105;52.968;5.974;2022-12-18T02:40:47;167.02;;;59.00;;
52106;SDS011;38105;52.968;5.974;2022-12-18T02:43:15;166.48;;;55.75;;
52106;SDS011;38105;52.968;5.974;2022-12-18T02:45:48;175.25;;;57.20;;
52106;SDS011;38105;52.968;5.974;2022-12-18T02:48:17;204.95;;;62.17;;
52106;SDS011;38105;52.968;5.974;2022-12-18T02:50:51;179.70;;;57.17;;
52106;SDS011;38105;52.968;5.974;2022-12-18T03:04:09;187.50;;;61.28;;
52106;SDS011;38105;52.968;5.974;2022-12-18T03:06:43;171.85;;;57.75;;
52106;SDS011;38105;52.968;5.974;2022-12-18T03:09:18;181.20;;;62.47;;
52106;SDS011;38105;52.968;5.974;2022-12-18T03:11:49;165.80;;;59.72;;
52106;SDS011;38105;52.968;5.974;2022-12-18T03:14:39;158.57;;;58.47;;
52106;SDS011;38105;52.968;5.974;2022-12-18T03:17:07;157.02;;;57.63;;
52106;SDS011;38105;52.968;5.974;2022-12-18T03:19:40;152.00;;;56.25;;
52106;SDS011;38105;52.968;5.974;2022-12-18T03:22:08;150.40;;;56.53;;
52106;SDS011;38105;52.968;5.974;2022-12-18T03:24:35;144.40;;;55.58;;
52106;SDS011;38105;52.968;5.974;2022-12-18T03:27:04;155.88;;;55.38;;
52106;SDS011;38105;52.968;5.974;2022-12-18T03:29:37;135.05;;;52.85;;
52106;SDS011;38105;52.968;5.974;2022-12-18T03:32:09;130.30;;;52.40;;
52106;SDS011;38105;52.968;5.974;2022-12-18T03:34:40;141.50;;;54.72;;
52106;SDS011;38105;52.968;5.974;2022-12-18T03:37:08;139.07;;;51.63;;
52106;SDS011;38105;52.968;5.974;2022-12-18T03:39:34;130.07;;;52.70;;
52106;SDS011;38105;52.968;5.974;2022-12-18T03:42:05;132.43;;;51.08;;
52106;SDS011;38105;52.968;5.974;2022-12-18T03:44:52;132.38;;;52.42;;
52106;SDS011;38105;52.968;5.974;2022-12-18T03:50:12;141.38;;;52.20;;
52106;SDS011;38105;52.968;5.974;2022-12-18T03:52:57;125.53;;;49.58;;
52106;SDS011;38105;52.968;5.974;2022-12-18T03:55:46;131.00;;;52.15;;
52106;SDS011;38105;52.968;5.974;2022-12-18T03:58:15;126.93;;;50.00;;
52106;SDS011;38105;52.968;5.974;2022-12-18T04:00:44;126.38;;;50.28;;
52106;SDS011;38105;52.968;5.974;2022-12-18T04:03:12;122.75;;;50.33;;
52106;SDS011;38105;52.968;5.974;2022-12-18T04:05:40;116.60;;;49.22;;
52106;SDS011;38105;52.968;5.974;2022-12-18T04:08:08;117.13;;;47.33;;
52106;SDS011;38105;52.968;5.974;2022-12-18T04:10:37;111.82;;;45.42;;
52106;SDS011;38105;52.968;5.974;2022-12-18T04:13:02;109.78;;;46.85;;
52106;SDS011;38105;52.968;5.974;2022-12-18T04:15:28;112.82;;;46.60;;
52106;SDS011;38105;52.968;5.974;2022-12-18T04:17:54;111.40;;;45.83;;
52106;SDS011;38105;52.968;5.974;2022-12-18T04:20:19;107.72;;;45.25;;
52106;SDS011;38105;52.968;5.974;2022-12-18T04:22:46;105.32;;;46.25;;
52106;SDS011;38105;52.968;5.974;2022-12-18T04:25:11;101.55;;;42.13;;
52106;SDS011;38105;52.968;5.974;2022-12-18T04:27:37;96.47;;;44.00;;
52106;SDS011;38105;52.968;5.974;2022-12-18T04:30:03;95.10;;;41.22;;
52106;SDS011;38105;52.968;5.974;2022-12-18T04:32:29;93.75;;;42.17;;
52106;SDS011;38105;52.968;5.974;2022-12-18T04:34:54;90.05;;;40.92;;
52106;SDS011;38105;52.968;5.974;2022-12-18T04:37:20;88.82;;;39.67;;
52106;SDS011;38105;52.968;5.974;2022-12-18T04:39:46;90.55;;;42.65;;
52106;SDS011;38105;52.968;5.974;2022-12-18T04:42:12;86.50;;;40.33;;
52106;SDS011;38105;52.968;5.974;2022-12-18T04:44:38;83.18;;;38.22;;
52106;SDS011;38105;52.968;5.974;2022-12-18T04:47:03;91.78;;;40.83;;
52106;SDS011;38105;52.968;5.974;2022-12-18T04:49:29;87.82;;;39.85;;
52106;SDS011;38105;52.968;5.974;2022-12-18T04:51:54;81.88;;;38.72;;
52106;SDS011;38105;52.968;5.974;2022-12-18T04:54:20;87.00;;;37.95;;
52106;SDS011;38105;52.968;5.974;2022-12-18T04:56:46;82.07;;;36.58;;
52106;SDS011;38105;52.968;5.974;2022-12-18T04:59:12;79.20;;;36.42;;
52106;SDS011;38105;52.968;5.974;2022-12-18T05:01:38;80.70;;;37.10;;
52106;SDS011;38105;52.968;5.974;2022-12-18T05:04:03;78.93;;;37.45;;
52106;SDS011;38105;52.968;5.974;2022-12-18T05:06:29;78.45;;;36.08;;
52106;SDS011;38105;52.968;5.974;2022-12-18T05:08:55;79.00;;;36.10;;
52106;SDS011;38105;52.968;5.974;2022-12-18T05:11:20;76.47;;;35.53;;
52106;SDS011;38105;52.968;5.974;2022-12-18T05:13:46;82.47;;;36.67;;
52106;SDS011;38105;52.968;5.974;2022-12-18T05:16:12;83.35;;;36.08;;
52106;SDS011;38105;52.968;5.974;2022-12-18T05:18:38;78.65;;;35.65;;
52106;SDS011;38105;52.968;5.974;2022-12-18T05:21:04;74.38;;;34.47;;
52106;SDS011;38105;52.968;5.974;2022-12-18T05:23:30;72.38;;;34.08;;
52106;SDS011;38105;52.968;5.974;2022-12-18T05:36:53;71.82;;;34.65;;
52106;SDS011;38105;52.968;5.974;2022-12-18T05:39:19;69.40;;;33.83;;
52106;SDS011;38105;52.968;5.974;2022-12-18T05:41:44;68.65;;;32.58;;
52106;SDS011;38105;52.968;5.974;2022-12-18T05:44:10;71.38;;;32.10;;
52106;SDS011;38105;52.968;5.974;2022-12-18T05:46:35;69.88;;;31.15;;
52106;SDS011;38105;52.968;5.974;2022-12-18T05:49:01;66.22;;;30.65;;
52106;SDS011;38105;52.968;5.974;2022-12-18T05:51:27;66.00;;;31.75;;
52106;SDS011;38105;52.968;5.974;2022-12-18T05:53:53;64.95;;;30.60;;
52106;SDS011;38105;52.968;5.974;2022-12-18T05:56:19;65.50;;;31.85;;
52106;SDS011;38105;52.968;5.974;2022-12-18T05:58:47;72.07;;;32.28;;
52106;SDS011;38105;52.968;5.974;2022-12-18T06:01:16;64.18;;;30.92;;
52106;SDS011;38105;52.968;5.974;2022-12-18T06:03:45;73.93;;;30.98;;
52106;SDS011;38105;52.968;5.974;2022-12-18T06:06:21;64.40;;;29.27;;
52106;SDS011;38105;52.968;5.974;2022-12-18T06:08:49;58.40;;;28.25;;
52106;SDS011;38105;52.968;5.974;2022-12-18T06:11:25;68.13;;;31.30;;
52106;SDS011;38105;52.968;5.974;2022-12-18T06:13:52;61.42;;;29.30;;
52106;SDS011;38105;52.968;5.974;2022-12-18T06:16:18;66.15;;;30.27;;
52106;SDS011;38105;52.968;5.974;2022-12-18T06:18:44;59.97;;;29.10;;
52106;SDS011;38105;52.968;5.974;2022-12-18T06:21:10;54.75;;;27.92;;
52106;SDS011;38105;52.968;5.974;2022-12-18T06:23:36;61.67;;;28.58;;
52106;SDS011;38105;52.968;5.974;2022-12-18T06:26:05;55.92;;;27.67;;
52106;SDS011;38105;52.968;5.974;2022-12-18T06:28:31;63.08;;;28.20;;
52106;SDS011;38105;52.968;5.974;2022-12-18T06:30:57;53.95;;;27.17;;
52106;SDS011;38105;52.968;5.974;2022-12-18T06:33:25;56.28;;;26.33;;
52106;SDS011;38105;52.968;5.974;2022-12-18T06:35:52;60.15;;;27.38;;
52106;SDS011;38105;52.968;5.974;2022-12-18T06:38:17;58.45;;;26.83;;
52106;SDS011;38105;52.968;5.974;2022-12-18T06:40:43;53.88;;;25.98;;
52106;SDS011;38105;52.968;5.974;2022-12-18T06:43:09;51.30;;;27.05;;
52106;SDS011;38105;52.968;5.974;2022-12-18T06:45:34;51.97;;;26.55;;
52106;SDS011;38105;52.968;5.974;2022-12-18T06:48:00;55.15;;;26.38;;
52106;SDS011;38105;52.968;5.974;2022-12-18T06:50:26;53.97;;;25.67;;
52106;SDS011;38105;52.968;5.974;2022-12-18T06:52:52;55.35;;;26.73;;
52106;SDS011;38105;52.968;5.974;2022-12-18T06:55:17;54.50;;;26.23;;
52106;SDS011;38105;52.968;5.974;2022-12-18T06:57:43;53.83;;;24.92;;
52106;SDS011;38105;52.968;5.974;2022-12-18T07:00:09;56.63;;;27.20;;
52106;SDS011;38105;52.968;5.974;2022-12-18T07:02:35;53.58;;;26.98;;
52106;SDS011;38105;52.968;5.974;2022-12-18T07:05:01;49.88;;;25.52;;
52106;SDS011;38105;52.968;5.974;2022-12-18T07:07:26;50.08;;;24.40;;
52106;SDS011;38105;52.968;5.974;2022-12-18T07:09:52;45.97;;;24.00;;
52106;SDS011;38105;52.968;5.974;2022-12-18T07:12:18;44.17;;;23.23;;
52106;SDS011;38105;52.968;5.974;2022-12-18T07:14:43;49.55;;;25.58;;
52106;SDS011;38105;52.968;5.974;2022-12-18T07:17:09;52.95;;;25.13;;
52106;SDS011;38105;52.968;5.974;2022-12-18T07:19:35;49.47;;;24.52;;
52106;SDS011;38105;52.968;5.974;2022-12-18T07:22:00;47.10;;;24.73;;
52106;SDS011;38105;52.968;5.974;2022-12-18T07:24:26;49.28;;;24.33;;
52106;SDS011;38105;52.968;5.974;2022-12-18T07:26:53;49.72;;;23.55;;
52106;SDS011;38105;52.968;5.974;2022-12-18T07:29:19;47.80;;;24.27;;
52106;SDS011;38105;52.968;5.974;2022-12-18T07:31:44;41.58;;;22.42;;
52106;SDS011;38105;52.968;5.974;2022-12-18T07:34:11;45.63;;;22.80;;
52106;SDS011;38105;52.968;5.974;2022-12-18T07:36:37;52.13;;;22.50;;
52106;SDS011;38105;52.968;5.974;2022-12-18T07:39:03;45.80;;;23.25;;
52106;SDS011;38105;52.968;5.974;2022-12-18T07:41:29;44.60;;;22.15;;
52106;SDS011;38105;52.968;5.974;2022-12-18T07:43:54;48.17;;;23.52;;
52106;SDS011;38105;52.968;5.974;2022-12-18T07:46:20;41.28;;;21.55;;
52106;SDS011;38105;52.968;5.974;2022-12-18T07:48:46;38.70;;;21.17;;
52106;SDS011;38105;52.968;5.974;2022-12-18T07:51:12;47.75;;;21.55;;
52106;SDS011;38105;52.968;5.974;2022-12-18T07:53:38;43.58;;;22.63;;
52106;SDS011;38105;52.968;5.974;2022-12-18T07:56:05;39.45;;;22.33;;
52106;SDS011;38105;52.968;5.974;2022-12-18T07:58:33;40.03;;;21.88;;
52106;SDS011;38105;52.968;5.974;2022-12-18T08:03:29;46.67;;;22.55;;
52106;SDS011;38105;52.968;5.974;2022-12-18T08:06:02;43.92;;;22.23;;
52106;SDS011;38105;52.968;5.974;2022-12-18T08:08:29;39.78;;;22.23;;
52106;SDS011;38105;52.968;5.974;2022-12-18T08:10:56;41.47;;;21.88;;
52106;SDS011;38105;52.968;5.974;2022-12-18T08:13:22;45.10;;;22.95;;
52106;SDS011;38105;52.968;5.974;2022-12-18T08:15:57;43.28;;;21.73;;
52106;SDS011;38105;52.968;5.974;2022-12-18T08:18:24;40.17;;;21.20;;
52106;SDS011;38105;52.968;5.974;2022-12-18T08:20:50;38.45;;;20.70;;
52106;SDS011;38105;52.968;5.974;2022-12-18T08:23:20;36.03;;;21.48;;
52106;SDS011;38105;52.968;5.974;2022-12-18T08:36:50;35.65;;;18.75;;
52106;SDS011;38105;52.968;5.974;2022-12-18T08:39:15;37.03;;;20.08;;
52106;SDS011;38105;52.968;5.974;2022-12-18T08:41:41;37.45;;;19.92;;
52106;SDS011;38105;52.968;5.974;2022-12-18T08:44:07;37.88;;;21.08;;
52106;SDS011;38105;52.968;5.974;2022-12-18T08:46:51;37.15;;;19.38;;
52106;SDS011;38105;52.968;5.974;2022-12-18T08:49:17;33.67;;;18.65;;
52106;SDS011;38105;52.968;5.974;2022-12-18T08:51:43;35.45;;;19.40;;
52106;SDS011;38105;52.968;5.974;2022-12-18T08:54:11;36.47;;;19.17;;
52106;SDS011;38105;52.968;5.974;2022-12-18T08:56:38;37.45;;;19.45;;
52106;SDS011;38105;52.968;5.974;2022-12-18T08:59:04;35.03;;;19.05;;
52106;SDS011;38105;52.968;5.974;2022-12-18T09:01:30;33.45;;;18.83;;
52106;SDS011;38105;52.968;5.974;2022-12-18T09:03:55;32.17;;;19.30;;
52106;SDS011;38105;52.968;5.974;2022-12-18T09:06:21;35.22;;;18.58;;
52106;SDS011;38105;52.968;5.974;2022-12-18T09:08:48;30.90;;;17.35;;
52106;SDS011;38105;52.968;5.974;2022-12-18T09:11:15;36.28;;;18.63;;
52106;SDS011;38105;52.968;5.974;2022-12-18T09:13:45;28.92;;;17.35;;
52106;SDS011;38105;52.968;5.974;2022-12-18T09:16:11;30.08;;;16.92;;
52106;SDS011;38105;52.968;5.974;2022-12-18T09:18:37;29.10;;;15.70;;
52106;SDS011;38105;52.968;5.974;2022-12-18T09:21:13;30.67;;;17.05;;
52106;SDS011;38105;52.968;5.974;2022-12-18T09:23:41;29.83;;;16.48;;
52106;SDS011;38105;52.968;5.974;2022-12-18T09:26:07;27.63;;;16.88;;
52106;SDS011;38105;52.968;5.974;2022-12-18T09:28:33;28.55;;;15.63;;
52106;SDS011;38105;52.968;5.974;2022-12-18T09:31:03;34.72;;;16.67;;
52106;SDS011;38105;52.968;5.974;2022-12-18T09:33:30;27.70;;;15.63;;
52106;SDS011;38105;52.968;5.974;2022-12-18T09:35:56;28.23;;;17.20;;
52106;SDS011;38105;52.968;5.974;2022-12-18T09:38:21;30.42;;;17.35;;
52106;SDS011;38105;52.968;5.974;2022-12-18T09:40:49;26.40;;;15.95;;
52106;SDS011;38105;52.968;5.974;2022-12-18T09:44:04;27.75;;;16.23;;
52106;SDS011;38105;52.968;5.974;2022-12-18T09:46:10;23.42;;;15.80;;
52106;SDS011;38105;52.968;5.974;2022-12-18T09:48:42;24.57;;;15.07;;
52106;SDS011;38105;52.968;5.974;2022-12-18T09:51:16;27.23;;;16.05;;
52106;SDS011;38105;52.968;5.974;2022-12-18T09:53:47;25.02;;;15.00;;
52106;SDS011;38105;52.968;5.974;2022-12-18T09:58:49;23.73;;;13.98;;
52106;SDS011;38105;52.968;5.974;2022-12-18T10:01:23;26.42;;;15.48;;
52106;SDS011;38105;52.968;5.974;2022-12-18T10:03:49;23.42;;;14.85;;
52106;SDS011;38105;52.968;5.974;2022-12-18T10:12:08;18.20;;;13.27;;
52106;SDS011;38105;52.968;5.974;2022-12-18T10:17:26;22.52;;;12.90;;
52106;SDS011;38105;52.968;5.974;2022-12-18T10:20:01;19.08;;;10.98;;
52106;SDS011;38105;52.968;5.974;2022-12-18T10:27:44;17.38;;;11.38;;
52106;SDS011;38105;52.968;5.974;2022-12-18T10:30:14;17.67;;;11.63;;
52106;SDS011;38105;52.968;5.974;2022-12-18T10:32:46;18.92;;;12.07;;
52106;SDS011;38105;52.968;5.974;2022-12-18T10:35:16;20.65;;;12.35;;
52106;SDS011;38105;52.968;5.974;2022-12-18T10:38:04;18.60;;;11.55;;
52106;SDS011;38105;52.968;5.974;2022-12-18T10:45:12;17.00;;;11.77;;
52106;SDS011;38105;52.968;5.974;2022-12-18T10:47:46;16.52;;;11.10;;
52106;SDS011;38105;52.968;5.974;2022-12-18T10:50:18;17.02;;;11.45;;
52106;SDS011;38105;52.968;5.974;2022-12-18T10:53:02;19.60;;;11.10;;
52106;SDS011;38105;52.968;5.974;2022-12-18T10:55:31;20.98;;;11.82;;
52106;SDS011;38105;52.968;5.974;2022-12-18T11:03:38;17.35;;;11.52;;
52106;SDS011;38105;52.968;5.974;2022-12-18T11:06:08;17.73;;;11.48;;
52106;SDS011;38105;52.968;5.974;2022-12-18T11:08:39;22.15;;;11.45;;
52106;SDS011;38105;52.968;5.974;2022-12-18T11:11:15;17.33;;;11.75;;
52106;SDS011;38105;52.968;5.974;2022-12-18T11:13:55;18.00;;;10.68;;
52106;SDS011;38105;52.968;5.974;2022-12-18T11:16:29;15.63;;;10.45;;
52106;SDS011;38105;52.968;5.974;2022-12-18T11:20:02;18.55;;;11.40;;
52106;SDS011;38105;52.968;5.974;2022-12-18T11:21:58;17.85;;;11.13;;
52106;SDS011;38105;52.968;5.974;2022-12-18T11:24:35;16.63;;;10.45;;
52106;SDS011;38105;52.968;5.974;2022-12-18T11:27:05;17.70;;;10.88;;
52106;SDS011;38105;52.968;5.974;2022-12-18T11:29:40;16.30;;;10.45;;
52106;SDS011;38105;52.968;5.974;2022-12-18T11:32:19;14.40;;;8.90;;
52106;SDS011;38105;52.968;5.974;2022-12-18T11:35:39;13.88;;;9.18;;
52106;SDS011;38105;52.968;5.974;2022-12-18T11:37:49;14.02;;;9.75;;
52106;SDS011;38105;52.968;5.974;2022-12-18T11:40:30;14.02;;;8.98;;
52106;SDS011;38105;52.968;5.974;2022-12-18T11:43:07;12.50;;;8.63;;
52106;SDS011;38105;52.968;5.974;2022-12-18T11:45:56;15.88;;;8.40;;
52106;SDS011;38105;52.968;5.974;2022-12-18T11:48:27;13.70;;;7.90;;
52106;SDS011;38105;52.968;5.974;2022-12-18T11:50:58;11.15;;;7.57;;
52106;SDS011;38105;52.968;5.974;2022-12-18T11:53:26;12.85;;;7.18;;
52106;SDS011;38105;52.968;5.974;2022-12-18T11:55:56;12.48;;;7.88;;
52106;SDS011;38105;52.968;5.974;2022-12-18T11:58:45;13.43;;;7.65;;
52106;SDS011;38105;52.968;5.974;2022-12-18T12:06:53;10.93;;;7.40;;
52106;SDS011;38105;52.968;5.974;2022-12-18T12:09:35;9.88;;;6.90;;
52106;SDS011;38105;52.968;5.974;2022-12-18T12:20:20;13.18;;;7.05;;
52106;SDS011;38105;52.968;5.974;2022-12-18T12:23:08;12.05;;;7.35;;
52106;SDS011;38105;52.968;5.974;2022-12-18T12:34:01;11.00;;;7.32;;
52106;SDS011;38105;52.968;5.974;2022-12-18T12:39:30;12.43;;;7.38;;
52106;SDS011;38105;52.968;5.974;2022-12-18T12:41:59;12.20;;;7.65;;
52106;SDS011;38105;52.968;5.974;2022-12-18T12:44:50;9.95;;;6.95;;
52106;SDS011;38105;52.968;5.974;2022-12-18T12:47:24;12.07;;;7.45;;
52106;SDS011;38105;52.968;5.974;2022-12-18T12:49:57;10.63;;;7.15;;
52106;SDS011;38105;52.968;5.974;2022-12-18T12:52:58;12.55;;;7.72;;
52106;SDS011;38105;52.968;5.974;2022-12-18T12:57:59;12.23;;;7.10;;
52106;SDS011;38105;52.968;5.974;2022-12-18T13:00:39;10.45;;;6.57;;
52106;SDS011;38105;52.968;5.974;2022-12-18T13:03:15;11.07;;;7.15;;
52106;SDS011;38105;52.968;5.974;2022-12-18T13:06:03;12.75;;;6.45;;
52106;SDS011;38105;52.968;5.974;2022-12-18T13:08:57;9.73;;;6.18;;
52106;SDS011;38105;52.968;5.974;2022-12-18T13:11:40;11.65;;;6.78;;
52106;SDS011;38105;52.968;5.974;2022-12-18T13:14:31;10.70;;;7.07;;
52106;SDS011;38105;52.968;5.974;2022-12-18T13:22:37;12.20;;;6.38;;
52106;SDS011;38105;52.968;5.974;2022-12-18T13:28:00;9.38;;;6.32;;
52106;SDS011;38105;52.968;5.974;2022-12-18T13:41:03;11.05;;;6.43;;
52106;SDS011;38105;52.968;5.974;2022-12-18T13:46:29;8.52;;;6.05;;
52106;SDS011;38105;52.968;5.974;2022-12-18T13:51:39;10.18;;;6.97;;
52106;SDS011;38105;52.968;5.974;2022-12-18T13:54:30;9.52;;;6.47;;
52106;SDS011;38105;52.968;5.974;2022-12-18T13:57:02;9.82;;;6.55;;
52106;SDS011;38105;52.968;5.974;2022-12-18T13:59:37;10.40;;;6.57;;
52106;SDS011;38105;52.968;5.974;2022-12-18T14:02:13;11.73;;;6.90;;
52106;SDS011;38105;52.968;5.974;2022-12-18T14:04:40;9.05;;;6.10;;
52106;SDS011;38105;52.968;5.974;2022-12-18T14:09:35;9.60;;;6.22;;
52106;SDS011;38105;52.968;5.974;2022-12-18T14:12:22;10.18;;;6.57;;
52106;SDS011;38105;52.968;5.974;2022-12-18T14:17:49;9.77;;;6.18;;
52106;SDS011;38105;52.968;5.974;2022-12-18T14:20:16;10.27;;;6.13;;
52106;SDS011;38105;52.968;5.974;2022-12-18T14:22:43;9.35;;;6.45;;
52106;SDS011;38105;52.968;5.974;2022-12-18T14:25:15;9.85;;;6.25;;
52106;SDS011;38105;52.968;5.974;2022-12-18T14:28:31;8.27;;;5.85;;
52106;SDS011;38105;52.968;5.974;2022-12-18T14:30:32;11.20;;;6.18;;
52106;SDS011;38105;52.968;5.974;2022-12-18T14:33:03;10.40;;;6.05;;
52106;SDS011;38105;52.968;5.974;2022-12-18T14:35:38;9.25;;;5.93;;
52106;SDS011;38105;52.968;5.974;2022-12-18T14:40:43;8.27;;;5.43;;
52106;SDS011;38105;52.968;5.974;2022-12-18T14:43:10;10.23;;;6.00;;
52106;SDS011;38105;52.968;5.974;2022-12-18T14:45:40;7.57;;;5.50;;
52106;SDS011;38105;52.968;5.974;2022-12-18T14:48:15;10.02;;;6.60;;
52106;SDS011;38105;52.968;5.974;2022-12-18T14:50:44;8.30;;;6.03;;
52106;SDS011;38105;52.968;5.974;2022-12-18T14:53:20;9.25;;;5.53;;
52106;SDS011;38105;52.968;5.974;2022-12-18T14:55:51;8.00;;;5.88;;
52106;SDS011;38105;52.968;5.974;2022-12-18T14:58:17;7.63;;;5.60;;
52106;SDS011;38105;52.968;5.974;2022-12-18T15:00:43;11.48;;;6.35;;
52106;SDS011;38105;52.968;5.974;2022-12-18T15:03:09;8.20;;;5.93;;
52106;SDS011;38105;52.968;5.974;2022-12-18T15:05:35;13.02;;;6.65;;
52106;SDS011;38105;52.968;5.974;2022-12-18T15:08:01;9.88;;;5.95;;
52106;SDS011;38105;52.968;5.974;2022-12-18T15:18:04;9.20;;;5.30;;
52106;SDS011;38105;52.968;5.974;2022-12-18T15:20:53;10.18;;;5.40;;
52106;SDS011;38105;52.968;5.974;2022-12-18T15:23:21;6.90;;;5.00;;
52106;SDS011;38105;52.968;5.974;2022-12-18T15:25:55;9.07;;;5.85;;
52106;SDS011;38105;52.968;5.974;2022-12-18T15:28:25;8.45;;;5.80;;
52106;SDS011;38105;52.968;5.974;2022-12-18T15:33:43;7.90;;;5.60;;
52106;SDS011;38105;52.968;5.974;2022-12-18T15:36:24;9.10;;;5.40;;
52106;SDS011;38105;52.968;5.974;2022-12-18T15:38:55;8.90;;;5.82;;
52106;SDS011;38105;52.968;5.974;2022-12-18T15:41:22;9.32;;;6.13;;
52106;SDS011;38105;52.968;5.974;2022-12-18T15:43:49;8.60;;;5.63;;
52106;SDS011;38105;52.968;5.974;2022-12-18T15:46:23;7.88;;;5.20;;
52106;SDS011;38105;52.968;5.974;2022-12-18T15:48:50;7.35;;;4.88;;
52106;SDS011;38105;52.968;5.974;2022-12-18T15:51:24;10.52;;;6.22;;
52106;SDS011;38105;52.968;5.974;2022-12-18T15:53:54;8.52;;;5.13;;
52106;SDS011;38105;52.968;5.974;2022-12-18T15:56:21;9.18;;;5.60;;
52106;SDS011;38105;52.968;5.974;2022-12-18T15:59:24;9.48;;;6.03;;
52106;SDS011;38105;52.968;5.974;2022-12-18T16:01:50;7.57;;;5.28;;
52106;SDS011;38105;52.968;5.974;2022-12-18T16:04:18;7.20;;;5.03;;
52106;SDS011;38105;52.968;5.974;2022-12-18T16:06:45;8.98;;;5.22;;
52106;SDS011;38105;52.968;5.974;2022-12-18T16:09:11;7.80;;;5.38;;
52106;SDS011;38105;52.968;5.974;2022-12-18T16:11:37;9.23;;;5.93;;
52106;SDS011;38105;52.968;5.974;2022-12-18T16:14:17;8.75;;;5.88;;
52106;SDS011;38105;52.968;5.974;2022-12-18T16:16:54;9.40;;;5.57;;
52106;SDS011;38105;52.968;5.974;2022-12-18T16:19:22;11.15;;;5.70;;
52106;SDS011;38105;52.968;5.974;2022-12-18T16:21:48;7.50;;;5.40;;
52106;SDS011;38105;52.968;5.974;2022-12-18T16:26:49;7.28;;;5.40;;
52106;SDS011;38105;52.968;5.974;2022-12-18T16:29:18;9.90;;;6.03;;
52106;SDS011;38105;52.968;5.974;2022-12-18T16:31:52;8.57;;;6.00;;
52106;SDS011;38105;52.968;5.974;2022-12-18T16:34:22;11.13;;;6.00;;
52106;SDS011;38105;52.968;5.974;2022-12-18T16:36:55;11.98;;;5.60;;
52106;SDS011;38105;52.968;5.974;2022-12-18T16:39:23;7.22;;;5.10;;
52106;SDS011;38105;52.968;5.974;2022-12-18T16:41:49;9.10;;;5.85;;
52106;SDS011;38105;52.968;5.974;2022-12-18T16:44:15;7.55;;;5.72;;
52106;SDS011;38105;52.968;5.974;2022-12-18T16:46:41;8.70;;;5.78;;
52106;SDS011;38105;52.968;5.974;2022-12-18T16:49:10;11.02;;;6.53;;
52106;SDS011;38105;52.968;5.974;2022-12-18T16:51:37;9.77;;;6.05;;
52106;SDS011;38105;52.968;5.974;2022-12-18T16:54:03;7.32;;;5.15;;
52106;SDS011;38105;52.968;5.974;2022-12-18T16:56:29;10.27;;;6.07;;
52106;SDS011;38105;52.968;5.974;2022-12-18T16:58:56;14.85;;;6.05;;
52106;SDS011;38105;52.968;5.974;2022-12-18T17:01:23;8.60;;;5.38;;
52106;SDS011;38105;52.968;5.974;2022-12-18T17:03:51;8.63;;;5.80;;
52106;SDS011;38105;52.968;5.974;2022-12-18T17:06:18;8.85;;;6.00;;
52106;SDS011;38105;52.968;5.974;2022-12-18T17:08:44;8.70;;;6.22;;